sensor_id;sensor_type;location;lat;lon;timestamp;P1;durP1;ratioP1;P2;durP2;ratioP2
73113;SDS011;61301;51.956;5.876;2022-07-18T00:00:34;1.80;;;1.27;;
73113;SDS011;61301;51.956;5.876;2022-07-18T00:03:00;1.30;;;1.00;;
73113;SDS011;61301;51.956;5.876;2022-07-18T00:05:26;1.60;;;1.17;;
73113;SDS011;61301;51.956;5.876;2022-07-18T00:07:52;1.10;;;0.90;;
73113;SDS011;61301;51.956;5.876;2022-07-18T00:10:18;1.27;;;1.17;;
73113;SDS011;61301;51.956;5.876;2022-07-18T00:12:44;1.25;;;0.75;;
73113;SDS011;61301;51.956;5.876;2022-07-18T00:15:10;1.58;;;0.90;;
73113;SDS011;61301;51.956;5.876;2022-07-18T00:17:37;1.60;;;0.95;;
73113;SDS011;61301;51.956;5.876;2022-07-18T00:20:04;0.70;;;0.68;;
73113;SDS011;61301;51.956;5.876;2022-07-18T00:22:32;1.95;;;1.30;;
73113;SDS011;61301;51.956;5.876;2022-07-18T00:24:58;1.70;;;1.30;;
73113;SDS011;61301;51.956;5.876;2022-07-18T00:27:24;2.50;;;1.30;;
73113;SDS011;61301;51.956;5.876;2022-07-18T00:29:50;0.80;;;0.65;;
73113;SDS011;61301;51.956;5.876;2022-07-18T00:32:16;1.08;;;0.93;;
73113;SDS011;61301;51.956;5.876;2022-07-18T00:34:43;1.10;;;1.00;;
73113;SDS011;61301;51.956;5.876;2022-07-18T00:37:09;1.40;;;0.90;;
73113;SDS011;61301;51.956;5.876;2022-07-18T00:39:35;2.00;;;1.33;;
73113;SDS011;61301;51.956;5.876;2022-07-18T00:42:01;1.65;;;1.10;;
73113;SDS011;61301;51.956;5.876;2022-07-18T00:44:27;1.85;;;1.00;;
73113;SDS011;61301;51.956;5.876;2022-07-18T00:46:58;1.33;;;0.77;;
73113;SDS011;61301;51.956;5.876;2022-07-18T00:49:26;1.77;;;1.10;;
73113;SDS011;61301;51.956;5.876;2022-07-18T00:51:52;1.20;;;0.75;;
73113;SDS011;61301;51.956;5.876;2022-07-18T00:54:19;1.63;;;1.23;;
73113;SDS011;61301;51.956;5.876;2022-07-18T00:56:45;1.88;;;1.30;;
73113;SDS011;61301;51.956;5.876;2022-07-18T00:59:13;1.60;;;1.30;;
73113;SDS011;61301;51.956;5.876;2022-07-18T01:01:39;1.05;;;0.85;;
73113;SDS011;61301;51.956;5.876;2022-07-18T01:04:18;1.25;;;1.00;;
73113;SDS011;61301;51.956;5.876;2022-07-18T01:06:47;1.88;;;1.23;;
73113;SDS011;61301;51.956;5.876;2022-07-18T01:09:15;1.02;;;0.70;;
73113;SDS011;61301;51.956;5.876;2022-07-18T01:11:44;1.75;;;1.10;;
73113;SDS011;61301;51.956;5.876;2022-07-18T01:14:11;1.92;;;1.40;;
73113;SDS011;61301;51.956;5.876;2022-07-18T01:16:38;2.30;;;1.38;;
73113;SDS011;61301;51.956;5.876;2022-07-18T01:19:04;1.30;;;0.98;;
73113;SDS011;61301;51.956;5.876;2022-07-18T01:21:30;2.83;;;1.30;;
73113;SDS011;61301;51.956;5.876;2022-07-18T01:23:57;1.52;;;1.13;;
73113;SDS011;61301;51.956;5.876;2022-07-18T01:26:23;0.77;;;0.68;;
73113;SDS011;61301;51.956;5.876;2022-07-18T01:28:49;1.52;;;0.77;;
73113;SDS011;61301;51.956;5.876;2022-07-18T01:31:15;1.65;;;0.60;;
73113;SDS011;61301;51.956;5.876;2022-07-18T01:33:41;0.85;;;0.70;;
73113;SDS011;61301;51.956;5.876;2022-07-18T01:36:07;0.40;;;0.40;;
73113;SDS011;61301;51.956;5.876;2022-07-18T01:38:34;1.10;;;0.80;;
73113;SDS011;61301;51.956;5.876;2022-07-18T01:41:00;3.05;;;1.50;;
73113;SDS011;61301;51.956;5.876;2022-07-18T01:43:27;2.17;;;1.27;;
73113;SDS011;61301;51.956;5.876;2022-07-18T01:45:53;1.77;;;1.02;;
73113;SDS011;61301;51.956;5.876;2022-07-18T01:48:19;1.88;;;1.10;;
73113;SDS011;61301;51.956;5.876;2022-07-18T01:50:48;2.17;;;1.30;;
73113;SDS011;61301;51.956;5.876;2022-07-18T01:53:14;1.55;;;0.93;;
73113;SDS011;61301;51.956;5.876;2022-07-18T01:55:40;0.95;;;0.82;;
73113;SDS011;61301;51.956;5.876;2022-07-18T01:58:06;0.75;;;0.52;;
73113;SDS011;61301;51.956;5.876;2022-07-18T02:00:32;0.70;;;0.60;;
73113;SDS011;61301;51.956;5.876;2022-07-18T02:02:58;0.85;;;0.73;;
73113;SDS011;61301;51.956;5.876;2022-07-18T02:05:24;1.20;;;0.70;;
73113;SDS011;61301;51.956;5.876;2022-07-18T02:07:50;0.57;;;0.57;;
73113;SDS011;61301;51.956;5.876;2022-07-18T02:10:18;0.90;;;0.80;;
73113;SDS011;61301;51.956;5.876;2022-07-18T02:12:45;1.10;;;0.82;;
73113;SDS011;61301;51.956;5.876;2022-07-18T02:15:12;1.95;;;1.15;;
73113;SDS011;61301;51.956;5.876;2022-07-18T02:17:40;1.05;;;0.70;;
73113;SDS011;61301;51.956;5.876;2022-07-18T02:20:08;0.95;;;0.85;;
73113;SDS011;61301;51.956;5.876;2022-07-18T02:22:36;1.20;;;1.00;;
73113;SDS011;61301;51.956;5.876;2022-07-18T02:25:02;0.98;;;0.90;;
73113;SDS011;61301;51.956;5.876;2022-07-18T02:27:29;1.13;;;0.85;;
73113;SDS011;61301;51.956;5.876;2022-07-18T02:29:55;1.23;;;0.80;;
73113;SDS011;61301;51.956;5.876;2022-07-18T02:32:21;0.70;;;0.40;;
73113;SDS011;61301;51.956;5.876;2022-07-18T02:34:49;0.98;;;0.77;;
73113;SDS011;61301;51.956;5.876;2022-07-18T02:37:15;1.30;;;1.00;;
73113;SDS011;61301;51.956;5.876;2022-07-18T02:39:41;1.23;;;0.90;;
73113;SDS011;61301;51.956;5.876;2022-07-18T02:42:07;1.63;;;0.77;;
73113;SDS011;61301;51.956;5.876;2022-07-18T02:44:33;0.80;;;0.68;;
73113;SDS011;61301;51.956;5.876;2022-07-18T02:46:59;0.75;;;0.55;;
73113;SDS011;61301;51.956;5.876;2022-07-18T02:49:25;1.50;;;0.60;;
73113;SDS011;61301;51.956;5.876;2022-07-18T02:51:59;0.93;;;0.52;;
73113;SDS011;61301;51.956;5.876;2022-07-18T02:54:26;0.88;;;0.50;;
73113;SDS011;61301;51.956;5.876;2022-07-18T02:56:53;0.50;;;0.47;;
73113;SDS011;61301;51.956;5.876;2022-07-18T02:59:19;1.17;;;0.77;;
73113;SDS011;61301;51.956;5.876;2022-07-18T03:01:46;0.60;;;0.50;;
73113;SDS011;61301;51.956;5.876;2022-07-18T03:04:14;1.02;;;0.70;;
73113;SDS011;61301;51.956;5.876;2022-07-18T03:06:41;0.70;;;0.50;;
73113;SDS011;61301;51.956;5.876;2022-07-18T03:09:07;1.13;;;0.40;;
73113;SDS011;61301;51.956;5.876;2022-07-18T03:11:33;0.40;;;0.40;;
73113;SDS011;61301;51.956;5.876;2022-07-18T03:13:59;1.17;;;0.98;;
73113;SDS011;61301;51.956;5.876;2022-07-18T03:16:25;1.00;;;0.90;;
73113;SDS011;61301;51.956;5.876;2022-07-18T03:18:51;2.58;;;1.45;;
73113;SDS011;61301;51.956;5.876;2022-07-18T03:21:17;3.67;;;1.60;;
73113;SDS011;61301;51.956;5.876;2022-07-18T03:23:43;1.65;;;1.13;;
73113;SDS011;61301;51.956;5.876;2022-07-18T03:26:09;1.77;;;1.40;;
73113;SDS011;61301;51.956;5.876;2022-07-18T03:28:35;1.55;;;0.90;;
73113;SDS011;61301;51.956;5.876;2022-07-18T03:31:01;0.88;;;0.70;;
73113;SDS011;61301;51.956;5.876;2022-07-18T03:33:29;0.73;;;0.70;;
73113;SDS011;61301;51.956;5.876;2022-07-18T03:35:56;2.05;;;0.90;;
73113;SDS011;61301;51.956;5.876;2022-07-18T03:38:22;0.80;;;0.60;;
73113;SDS011;61301;51.956;5.876;2022-07-18T03:40:48;0.80;;;0.57;;
73113;SDS011;61301;51.956;5.876;2022-07-18T03:43:14;0.88;;;0.50;;
73113;SDS011;61301;51.956;5.876;2022-07-18T03:45:40;1.17;;;0.50;;
73113;SDS011;61301;51.956;5.876;2022-07-18T03:48:06;2.40;;;0.40;;
73113;SDS011;61301;51.956;5.876;2022-07-18T03:50:32;0.55;;;0.40;;
73113;SDS011;61301;51.956;5.876;2022-07-18T03:52:59;0.70;;;0.60;;
73113;SDS011;61301;51.956;5.876;2022-07-18T03:55:25;0.82;;;0.63;;
73113;SDS011;61301;51.956;5.876;2022-07-18T03:57:51;0.80;;;0.60;;
73113;SDS011;61301;51.956;5.876;2022-07-18T04:00:17;1.13;;;0.73;;
73113;SDS011;61301;51.956;5.876;2022-07-18T04:02:45;0.85;;;0.68;;
73113;SDS011;61301;51.956;5.876;2022-07-18T04:05:13;0.98;;;0.73;;
73113;SDS011;61301;51.956;5.876;2022-07-18T04:07:40;0.98;;;0.85;;
73113;SDS011;61301;51.956;5.876;2022-07-18T04:10:07;1.05;;;0.60;;
73113;SDS011;61301;51.956;5.876;2022-07-18T04:12:34;2.42;;;0.95;;
73113;SDS011;61301;51.956;5.876;2022-07-18T04:15:09;1.30;;;0.90;;
73113;SDS011;61301;51.956;5.876;2022-07-18T04:17:35;0.60;;;0.50;;
73113;SDS011;61301;51.956;5.876;2022-07-18T04:20:01;1.25;;;0.73;;
73113;SDS011;61301;51.956;5.876;2022-07-18T04:22:28;0.82;;;0.60;;
73113;SDS011;61301;51.956;5.876;2022-07-18T04:24:54;1.25;;;0.70;;
73113;SDS011;61301;51.956;5.876;2022-07-18T04:27:20;0.88;;;0.70;;
73113;SDS011;61301;51.956;5.876;2022-07-18T04:29:46;2.58;;;1.80;;
73113;SDS011;61301;51.956;5.876;2022-07-18T04:32:12;2.13;;;1.60;;
73113;SDS011;61301;51.956;5.876;2022-07-18T04:34:38;1.48;;;1.00;;
73113;SDS011;61301;51.956;5.876;2022-07-18T04:37:04;1.20;;;1.02;;
73113;SDS011;61301;51.956;5.876;2022-07-18T04:39:29;1.15;;;1.05;;
73113;SDS011;61301;51.956;5.876;2022-07-18T04:41:55;1.63;;;0.68;;
73113;SDS011;61301;51.956;5.876;2022-07-18T04:44:21;1.10;;;0.88;;
73113;SDS011;61301;51.956;5.876;2022-07-18T04:46:48;1.65;;;1.23;;
73113;SDS011;61301;51.956;5.876;2022-07-18T04:49:14;1.45;;;1.30;;
73113;SDS011;61301;51.956;5.876;2022-07-18T04:51:39;1.40;;;1.10;;
73113;SDS011;61301;51.956;5.876;2022-07-18T04:54:05;2.80;;;1.70;;
73113;SDS011;61301;51.956;5.876;2022-07-18T04:56:33;3.40;;;2.00;;
73113;SDS011;61301;51.956;5.876;2022-07-18T04:58:59;1.33;;;1.00;;
73113;SDS011;61301;51.956;5.876;2022-07-18T05:01:25;5.53;;;2.20;;
73113;SDS011;61301;51.956;5.876;2022-07-18T05:03:51;2.28;;;1.63;;
73113;SDS011;61301;51.956;5.876;2022-07-18T05:06:17;4.47;;;1.90;;
73113;SDS011;61301;51.956;5.876;2022-07-18T05:08:43;4.18;;;2.80;;
73113;SDS011;61301;51.956;5.876;2022-07-18T05:11:09;2.95;;;2.10;;
73113;SDS011;61301;51.956;5.876;2022-07-18T05:13:35;4.38;;;2.85;;
73113;SDS011;61301;51.956;5.876;2022-07-18T05:16:01;6.63;;;3.60;;
73113;SDS011;61301;51.956;5.876;2022-07-18T05:18:27;3.45;;;2.17;;
73113;SDS011;61301;51.956;5.876;2022-07-18T05:20:53;2.92;;;1.88;;
73113;SDS011;61301;51.956;5.876;2022-07-18T05:23:19;2.75;;;2.13;;
73113;SDS011;61301;51.956;5.876;2022-07-18T05:25:45;4.88;;;2.20;;
73113;SDS011;61301;51.956;5.876;2022-07-18T05:28:11;3.10;;;1.90;;
73113;SDS011;61301;51.956;5.876;2022-07-18T05:30:37;2.90;;;1.75;;
73113;SDS011;61301;51.956;5.876;2022-07-18T05:33:03;3.85;;;2.47;;
73113;SDS011;61301;51.956;5.876;2022-07-18T05:35:30;5.30;;;2.58;;
73113;SDS011;61301;51.956;5.876;2022-07-18T05:37:56;2.67;;;1.55;;
73113;SDS011;61301;51.956;5.876;2022-07-18T05:40:22;4.78;;;2.60;;
73113;SDS011;61301;51.956;5.876;2022-07-18T05:42:48;2.08;;;1.50;;
73113;SDS011;61301;51.956;5.876;2022-07-18T05:45:15;2.95;;;2.17;;
73113;SDS011;61301;51.956;5.876;2022-07-18T05:47:41;7.45;;;2.55;;
73113;SDS011;61301;51.956;5.876;2022-07-18T05:50:07;5.65;;;2.42;;
73113;SDS011;61301;51.956;5.876;2022-07-18T05:52:34;4.28;;;2.08;;
73113;SDS011;61301;51.956;5.876;2022-07-18T05:55:00;5.50;;;2.38;;
73113;SDS011;61301;51.956;5.876;2022-07-18T05:57:26;3.17;;;2.20;;
73113;SDS011;61301;51.956;5.876;2022-07-18T05:59:52;4.43;;;1.40;;
73113;SDS011;61301;51.956;5.876;2022-07-18T06:02:18;16.17;;;3.35;;
73113;SDS011;61301;51.956;5.876;2022-07-18T06:04:44;4.88;;;2.30;;
73113;SDS011;61301;51.956;5.876;2022-07-18T06:07:10;5.63;;;3.10;;
73113;SDS011;61301;51.956;5.876;2022-07-18T06:09:36;8.70;;;3.63;;
73113;SDS011;61301;51.956;5.876;2022-07-18T06:12:02;3.28;;;2.45;;
73113;SDS011;61301;51.956;5.876;2022-07-18T06:14:29;5.35;;;3.17;;
73113;SDS011;61301;51.956;5.876;2022-07-18T06:16:56;4.07;;;1.90;;
73113;SDS011;61301;51.956;5.876;2022-07-18T06:19:22;5.10;;;2.90;;
73113;SDS011;61301;51.956;5.876;2022-07-18T06:21:48;6.30;;;2.97;;
73113;SDS011;61301;51.956;5.876;2022-07-18T06:24:14;5.35;;;2.60;;
73113;SDS011;61301;51.956;5.876;2022-07-18T06:26:40;5.10;;;3.20;;
73113;SDS011;61301;51.956;5.876;2022-07-18T06:29:06;3.78;;;2.65;;
73113;SDS011;61301;51.956;5.876;2022-07-18T06:31:32;3.60;;;2.33;;
73113;SDS011;61301;51.956;5.876;2022-07-18T06:33:57;3.78;;;2.45;;
73113;SDS011;61301;51.956;5.876;2022-07-18T06:36:23;5.03;;;3.00;;
73113;SDS011;61301;51.956;5.876;2022-07-18T06:38:50;4.97;;;2.70;;
73113;SDS011;61301;51.956;5.876;2022-07-18T06:41:17;5.32;;;2.30;;
73113;SDS011;61301;51.956;5.876;2022-07-18T06:43:43;7.93;;;3.00;;
73113;SDS011;61301;51.956;5.876;2022-07-18T06:46:09;5.22;;;2.65;;
73113;SDS011;61301;51.956;5.876;2022-07-18T06:48:35;6.80;;;3.10;;
73113;SDS011;61301;51.956;5.876;2022-07-18T06:51:02;3.55;;;2.05;;
73113;SDS011;61301;51.956;5.876;2022-07-18T06:53:30;4.82;;;2.97;;
73113;SDS011;61301;51.956;5.876;2022-07-18T06:55:56;6.05;;;2.30;;
73113;SDS011;61301;51.956;5.876;2022-07-18T06:58:22;6.93;;;2.67;;
73113;SDS011;61301;51.956;5.876;2022-07-18T07:00:49;4.68;;;2.58;;
73113;SDS011;61301;51.956;5.876;2022-07-18T07:03:16;7.22;;;2.70;;
73113;SDS011;61301;51.956;5.876;2022-07-18T07:05:42;4.05;;;1.70;;
73113;SDS011;61301;51.956;5.876;2022-07-18T07:08:08;6.72;;;2.67;;
73113;SDS011;61301;51.956;5.876;2022-07-18T07:10:34;5.35;;;2.15;;
73113;SDS011;61301;51.956;5.876;2022-07-18T07:13:00;5.65;;;2.42;;
73113;SDS011;61301;51.956;5.876;2022-07-18T07:15:26;5.85;;;1.98;;
73113;SDS011;61301;51.956;5.876;2022-07-18T07:17:52;1.77;;;1.30;;
73113;SDS011;61301;51.956;5.876;2022-07-18T07:20:18;4.78;;;1.92;;
73113;SDS011;61301;51.956;5.876;2022-07-18T07:22:47;4.10;;;1.85;;
73113;SDS011;61301;51.956;5.876;2022-07-18T07:25:15;5.45;;;1.88;;
73113;SDS011;61301;51.956;5.876;2022-07-18T07:27:42;4.47;;;1.70;;
73113;SDS011;61301;51.956;5.876;2022-07-18T07:30:08;2.78;;;1.20;;
73113;SDS011;61301;51.956;5.876;2022-07-18T07:32:35;3.97;;;1.38;;
73113;SDS011;61301;51.956;5.876;2022-07-18T07:35:03;3.90;;;1.25;;
73113;SDS011;61301;51.956;5.876;2022-07-18T07:37:32;5.07;;;1.50;;
73113;SDS011;61301;51.956;5.876;2022-07-18T07:39:59;2.97;;;1.60;;
73113;SDS011;61301;51.956;5.876;2022-07-18T07:42:25;2.53;;;0.93;;
73113;SDS011;61301;51.956;5.876;2022-07-18T07:44:51;6.65;;;2.15;;
73113;SDS011;61301;51.956;5.876;2022-07-18T07:47:17;4.47;;;1.60;;
73113;SDS011;61301;51.956;5.876;2022-07-18T07:49:43;2.80;;;1.55;;
73113;SDS011;61301;51.956;5.876;2022-07-18T07:52:09;3.55;;;1.17;;
73113;SDS011;61301;51.956;5.876;2022-07-18T07:54:37;2.83;;;1.20;;
73113;SDS011;61301;51.956;5.876;2022-07-18T07:57:03;3.08;;;1.40;;
73113;SDS011;61301;51.956;5.876;2022-07-18T07:59:29;4.18;;;1.40;;
73113;SDS011;61301;51.956;5.876;2022-07-18T08:01:58;3.30;;;1.40;;
73113;SDS011;61301;51.956;5.876;2022-07-18T08:04:24;7.00;;;1.60;;
73113;SDS011;61301;51.956;5.876;2022-07-18T08:06:50;3.70;;;0.90;;
73113;SDS011;61301;51.956;5.876;2022-07-18T08:09:16;2.60;;;1.23;;
73113;SDS011;61301;51.956;5.876;2022-07-18T08:11:42;2.47;;;1.10;;
73113;SDS011;61301;51.956;5.876;2022-07-18T08:14:08;1.90;;;1.35;;
73113;SDS011;61301;51.956;5.876;2022-07-18T08:16:34;1.95;;;1.00;;
73113;SDS011;61301;51.956;5.876;2022-07-18T08:19:00;2.90;;;1.10;;
73113;SDS011;61301;51.956;5.876;2022-07-18T08:21:26;2.00;;;1.02;;
73113;SDS011;61301;51.956;5.876;2022-07-18T08:23:52;4.30;;;1.60;;
73113;SDS011;61301;51.956;5.876;2022-07-18T08:26:18;2.70;;;1.10;;
73113;SDS011;61301;51.956;5.876;2022-07-18T08:28:44;3.85;;;1.63;;
73113;SDS011;61301;51.956;5.876;2022-07-18T08:31:10;4.55;;;1.30;;
73113;SDS011;61301;51.956;5.876;2022-07-18T08:33:36;1.70;;;1.08;;
73113;SDS011;61301;51.956;5.876;2022-07-18T08:36:02;3.13;;;1.00;;
73113;SDS011;61301;51.956;5.876;2022-07-18T08:38:29;3.63;;;1.60;;
73113;SDS011;61301;51.956;5.876;2022-07-18T08:40:55;2.92;;;1.10;;
73113;SDS011;61301;51.956;5.876;2022-07-18T08:43:24;4.28;;;1.30;;
73113;SDS011;61301;51.956;5.876;2022-07-18T08:45:51;3.70;;;1.50;;
73113;SDS011;61301;51.956;5.876;2022-07-18T08:48:22;3.25;;;1.25;;
73113;SDS011;61301;51.956;5.876;2022-07-18T08:50:49;5.43;;;1.40;;
73113;SDS011;61301;51.956;5.876;2022-07-18T08:53:15;2.30;;;1.15;;
73113;SDS011;61301;51.956;5.876;2022-07-18T08:55:43;3.40;;;0.85;;
73113;SDS011;61301;51.956;5.876;2022-07-18T08:58:10;6.32;;;1.40;;
73113;SDS011;61301;51.956;5.876;2022-07-18T09:00:38;2.63;;;1.13;;
73113;SDS011;61301;51.956;5.876;2022-07-18T09:03:04;4.57;;;1.27;;
73113;SDS011;61301;51.956;5.876;2022-07-18T09:05:30;3.03;;;0.85;;
73113;SDS011;61301;51.956;5.876;2022-07-18T09:08:11;5.88;;;1.27;;
73113;SDS011;61301;51.956;5.876;2022-07-18T09:13:29;4.07;;;1.02;;
73113;SDS011;61301;51.956;5.876;2022-07-18T09:16:02;2.88;;;1.27;;
73113;SDS011;61301;51.956;5.876;2022-07-18T09:18:32;2.42;;;1.05;;
73113;SDS011;61301;51.956;5.876;2022-07-18T09:21:05;4.60;;;1.58;;
73113;SDS011;61301;51.956;5.876;2022-07-18T09:23:36;2.65;;;1.38;;
73113;SDS011;61301;51.956;5.876;2022-07-18T09:26:04;2.53;;;1.10;;
73113;SDS011;61301;51.956;5.876;2022-07-18T09:28:50;2.83;;;1.20;;
73113;SDS011;61301;51.956;5.876;2022-07-18T09:31:21;2.72;;;1.00;;
73113;SDS011;61301;51.956;5.876;2022-07-18T09:36:16;3.47;;;1.23;;
73113;SDS011;61301;51.956;5.876;2022-07-18T09:38:42;3.90;;;1.13;;
73113;SDS011;61301;51.956;5.876;2022-07-18T09:41:10;1.90;;;1.10;;
73113;SDS011;61301;51.956;5.876;2022-07-18T09:43:37;2.03;;;1.20;;
73113;SDS011;61301;51.956;5.876;2022-07-18T09:46:04;3.53;;;1.38;;
73113;SDS011;61301;51.956;5.876;2022-07-18T09:48:32;2.28;;;1.02;;
73113;SDS011;61301;51.956;5.876;2022-07-18T09:50:58;6.30;;;1.60;;
73113;SDS011;61301;51.956;5.876;2022-07-18T09:53:40;2.28;;;0.95;;
73113;SDS011;61301;51.956;5.876;2022-07-18T09:56:10;4.30;;;1.00;;
73113;SDS011;61301;51.956;5.876;2022-07-18T09:58:53;3.15;;;1.10;;
73113;SDS011;61301;51.956;5.876;2022-07-18T10:01:20;2.43;;;0.90;;
73113;SDS011;61301;51.956;5.876;2022-07-18T10:03:47;1.85;;;0.90;;
73113;SDS011;61301;51.956;5.876;2022-07-18T10:06:16;2.08;;;1.13;;
73113;SDS011;61301;51.956;5.876;2022-07-18T10:08:43;3.20;;;1.20;;
73113;SDS011;61301;51.956;5.876;2022-07-18T10:11:10;2.17;;;1.05;;
73113;SDS011;61301;51.956;5.876;2022-07-18T10:13:36;1.80;;;0.70;;
73113;SDS011;61301;51.956;5.876;2022-07-18T10:16:04;1.58;;;0.50;;
73113;SDS011;61301;51.956;5.876;2022-07-18T10:18:32;0.93;;;0.47;;
73113;SDS011;61301;51.956;5.876;2022-07-18T10:21:03;2.53;;;0.70;;
73113;SDS011;61301;51.956;5.876;2022-07-18T10:28:32;3.70;;;1.50;;
73113;SDS011;61301;51.956;5.876;2022-07-18T10:31:12;2.28;;;1.00;;
73113;SDS011;61301;51.956;5.876;2022-07-18T10:33:43;1.92;;;0.80;;
73113;SDS011;61301;51.956;5.876;2022-07-18T10:36:15;5.40;;;1.35;;
73113;SDS011;61301;51.956;5.876;2022-07-18T10:55:37;4.07;;;1.10;;
73113;SDS011;61301;51.956;5.876;2022-07-18T11:00:17;3.78;;;0.82;;
73113;SDS011;61301;51.956;5.876;2022-07-18T11:03:03;1.73;;;1.00;;
73113;SDS011;61301;51.956;5.876;2022-07-18T11:13:22;2.27;;;1.10;;
73113;SDS011;61301;51.956;5.876;2022-07-18T11:18:30;2.33;;;0.90;;
73113;SDS011;61301;51.956;5.876;2022-07-18T11:20:57;1.25;;;0.93;;
73113;SDS011;61301;51.956;5.876;2022-07-18T11:23:24;2.08;;;0.98;;
73113;SDS011;61301;51.956;5.876;2022-07-18T11:25:56;1.77;;;1.00;;
73113;SDS011;61301;51.956;5.876;2022-07-18T11:28:24;2.08;;;1.05;;
73113;SDS011;61301;51.956;5.876;2022-07-18T11:31:01;3.10;;;1.13;;
73113;SDS011;61301;51.956;5.876;2022-07-18T11:33:35;2.00;;;0.98;;
73113;SDS011;61301;51.956;5.876;2022-07-18T11:38:30;3.65;;;1.38;;
73113;SDS011;61301;51.956;5.876;2022-07-18T11:40:56;2.10;;;1.05;;
73113;SDS011;61301;51.956;5.876;2022-07-18T11:43:23;2.33;;;1.00;;
73113;SDS011;61301;51.956;5.876;2022-07-18T11:48:26;3.05;;;0.70;;
73113;SDS011;61301;51.956;5.876;2022-07-18T11:50:52;2.35;;;1.00;;
73113;SDS011;61301;51.956;5.876;2022-07-18T11:53:18;2.85;;;1.00;;
73113;SDS011;61301;51.956;5.876;2022-07-18T11:55:44;0.95;;;0.80;;
73113;SDS011;61301;51.956;5.876;2022-07-18T11:58:10;2.22;;;0.88;;
73113;SDS011;61301;51.956;5.876;2022-07-18T12:00:38;3.35;;;1.00;;
73113;SDS011;61301;51.956;5.876;2022-07-18T12:05:34;3.63;;;0.93;;
73113;SDS011;61301;51.956;5.876;2022-07-18T12:13:40;4.43;;;1.40;;
73113;SDS011;61301;51.956;5.876;2022-07-18T12:18:49;1.75;;;0.90;;
73113;SDS011;61301;51.956;5.876;2022-07-18T12:21:16;1.98;;;1.05;;
73113;SDS011;61301;51.956;5.876;2022-07-18T12:23:42;4.22;;;1.33;;
73113;SDS011;61301;51.956;5.876;2022-07-18T12:26:08;2.45;;;1.38;;
73113;SDS011;61301;51.956;5.876;2022-07-18T12:28:34;1.38;;;1.05;;
73113;SDS011;61301;51.956;5.876;2022-07-18T12:31:00;2.08;;;0.90;;
73113;SDS011;61301;51.956;5.876;2022-07-18T12:33:26;1.65;;;0.82;;
73113;SDS011;61301;51.956;5.876;2022-07-18T12:35:55;2.60;;;1.05;;
73113;SDS011;61301;51.956;5.876;2022-07-18T12:38:23;2.97;;;1.23;;
73113;SDS011;61301;51.956;5.876;2022-07-18T12:40:53;1.65;;;0.80;;
73113;SDS011;61301;51.956;5.876;2022-07-18T12:45:49;2.92;;;1.60;;
73113;SDS011;61301;51.956;5.876;2022-07-18T12:48:15;1.77;;;1.08;;
73113;SDS011;61301;51.956;5.876;2022-07-18T12:50:41;2.92;;;1.20;;
73113;SDS011;61301;51.956;5.876;2022-07-18T12:53:08;1.95;;;1.10;;
73113;SDS011;61301;51.956;5.876;2022-07-18T12:55:34;3.20;;;0.90;;
73113;SDS011;61301;51.956;5.876;2022-07-18T12:58:03;2.80;;;1.20;;
73113;SDS011;61301;51.956;5.876;2022-07-18T13:00:29;4.10;;;1.30;;
73113;SDS011;61301;51.956;5.876;2022-07-18T13:02:57;3.72;;;1.23;;
73113;SDS011;61301;51.956;5.876;2022-07-18T13:05:25;1.33;;;1.00;;
73113;SDS011;61301;51.956;5.876;2022-07-18T13:07:52;2.15;;;0.93;;
73113;SDS011;61301;51.956;5.876;2022-07-18T13:10:18;4.90;;;1.13;;
73113;SDS011;61301;51.956;5.876;2022-07-18T13:12:44;1.73;;;0.82;;
73113;SDS011;61301;51.956;5.876;2022-07-18T13:15:10;3.50;;;1.13;;
73113;SDS011;61301;51.956;5.876;2022-07-18T13:17:36;2.80;;;0.95;;
73113;SDS011;61301;51.956;5.876;2022-07-18T13:20:02;3.28;;;1.00;;
73113;SDS011;61301;51.956;5.876;2022-07-18T13:22:29;1.48;;;0.95;;
73113;SDS011;61301;51.956;5.876;2022-07-18T13:25:04;1.95;;;1.10;;
73113;SDS011;61301;51.956;5.876;2022-07-18T13:27:31;2.55;;;1.08;;
73113;SDS011;61301;51.956;5.876;2022-07-18T13:29:57;2.05;;;0.88;;
73113;SDS011;61301;51.956;5.876;2022-07-18T13:32:22;1.83;;;1.00;;
73113;SDS011;61301;51.956;5.876;2022-07-18T13:34:48;4.03;;;1.27;;
73113;SDS011;61301;51.956;5.876;2022-07-18T13:37:14;1.92;;;1.17;;
73113;SDS011;61301;51.956;5.876;2022-07-18T13:39:40;1.40;;;0.90;;
73113;SDS011;61301;51.956;5.876;2022-07-18T13:42:06;1.10;;;0.90;;
73113;SDS011;61301;51.956;5.876;2022-07-18T13:44:32;1.40;;;0.80;;
73113;SDS011;61301;51.956;5.876;2022-07-18T13:46:58;2.38;;;1.10;;
73113;SDS011;61301;51.956;5.876;2022-07-18T13:49:24;0.80;;;0.80;;
73113;SDS011;61301;51.956;5.876;2022-07-18T13:51:50;2.40;;;1.10;;
73113;SDS011;61301;51.956;5.876;2022-07-18T13:54:16;1.88;;;1.00;;
73113;SDS011;61301;51.956;5.876;2022-07-18T13:56:44;3.42;;;0.82;;
73113;SDS011;61301;51.956;5.876;2022-07-18T13:59:10;1.17;;;0.98;;
73113;SDS011;61301;51.956;5.876;2022-07-18T14:01:36;1.75;;;1.20;;
73113;SDS011;61301;51.956;5.876;2022-07-18T14:04:03;1.85;;;0.90;;
73113;SDS011;61301;51.956;5.876;2022-07-18T14:06:29;1.98;;;1.00;;
73113;SDS011;61301;51.956;5.876;2022-07-18T14:08:55;2.03;;;0.68;;
73113;SDS011;61301;51.956;5.876;2022-07-18T14:11:21;0.88;;;0.75;;
73113;SDS011;61301;51.956;5.876;2022-07-18T14:13:47;1.67;;;1.00;;
73113;SDS011;61301;51.956;5.876;2022-07-18T14:16:13;2.40;;;1.27;;
73113;SDS011;61301;51.956;5.876;2022-07-18T14:18:39;2.22;;;1.30;;
73113;SDS011;61301;51.956;5.876;2022-07-18T14:21:05;2.45;;;1.00;;
73113;SDS011;61301;51.956;5.876;2022-07-18T14:23:32;1.27;;;0.93;;
73113;SDS011;61301;51.956;5.876;2022-07-18T14:25:58;1.00;;;0.70;;
73113;SDS011;61301;51.956;5.876;2022-07-18T14:28:24;1.63;;;1.05;;
73113;SDS011;61301;51.956;5.876;2022-07-18T14:30:50;1.70;;;1.20;;
73113;SDS011;61301;51.956;5.876;2022-07-18T14:33:16;2.08;;;0.60;;
73113;SDS011;61301;51.956;5.876;2022-07-18T14:35:42;3.00;;;0.90;;
73113;SDS011;61301;51.956;5.876;2022-07-18T14:38:08;3.63;;;0.93;;
73113;SDS011;61301;51.956;5.876;2022-07-18T14:40:34;1.55;;;0.85;;
73113;SDS011;61301;51.956;5.876;2022-07-18T14:43:00;1.55;;;0.82;;
73113;SDS011;61301;51.956;5.876;2022-07-18T14:45:26;1.58;;;0.70;;
73113;SDS011;61301;51.956;5.876;2022-07-18T14:47:52;0.90;;;0.70;;
73113;SDS011;61301;51.956;5.876;2022-07-18T14:50:17;0.90;;;0.82;;
73113;SDS011;61301;51.956;5.876;2022-07-18T14:52:45;1.05;;;0.80;;
73113;SDS011;61301;51.956;5.876;2022-07-18T14:55:13;1.67;;;1.08;;
73113;SDS011;61301;51.956;5.876;2022-07-18T14:57:38;1.23;;;0.80;;
73113;SDS011;61301;51.956;5.876;2022-07-18T15:00:05;2.15;;;0.90;;
73113;SDS011;61301;51.956;5.876;2022-07-18T15:02:33;0.82;;;0.75;;
73113;SDS011;61301;51.956;5.876;2022-07-18T15:04:59;0.70;;;0.70;;
73113;SDS011;61301;51.956;5.876;2022-07-18T15:07:25;1.20;;;0.80;;
73113;SDS011;61301;51.956;5.876;2022-07-18T15:09:50;1.42;;;0.68;;
73113;SDS011;61301;51.956;5.876;2022-07-18T15:12:16;0.55;;;0.38;;
73113;SDS011;61301;51.956;5.876;2022-07-18T15:14:43;1.73;;;0.93;;
73113;SDS011;61301;51.956;5.876;2022-07-18T15:17:09;1.10;;;0.70;;
73113;SDS011;61301;51.956;5.876;2022-07-18T15:19:35;1.60;;;0.65;;
73113;SDS011;61301;51.956;5.876;2022-07-18T15:22:01;1.25;;;0.70;;
73113;SDS011;61301;51.956;5.876;2022-07-18T15:24:27;1.67;;;0.60;;
73113;SDS011;61301;51.956;5.876;2022-07-18T15:26:53;0.65;;;0.50;;
73113;SDS011;61301;51.956;5.876;2022-07-18T15:29:19;1.92;;;0.68;;
73113;SDS011;61301;51.956;5.876;2022-07-18T15:31:45;2.47;;;1.02;;
73113;SDS011;61301;51.956;5.876;2022-07-18T15:34:11;2.05;;;0.85;;
73113;SDS011;61301;51.956;5.876;2022-07-18T15:36:37;1.33;;;0.73;;
73113;SDS011;61301;51.956;5.876;2022-07-18T15:39:03;1.80;;;0.80;;
73113;SDS011;61301;51.956;5.876;2022-07-18T15:41:29;1.20;;;0.55;;
73113;SDS011;61301;51.956;5.876;2022-07-18T15:43:55;0.82;;;0.60;;